Terminal Aerodrome Forecast
Issued by NWS

Home | Current Version | Previous Version | Text Only | Print | Product List | Glossary On
Versions: 1 2 3 4 5 6 7 8 9 10 11 12 13 14 15 16 17 18 19 20 21 22 23 24 25 26 27 28 29 30 31 32 33 34 35
000
FTUS43 KPAH 081100
TAFOWB
TAF
KOWB 081138Z 0812/0912 25012G19KT P6SM SCT030 BKN150
     FM081400 24014G23KT P6SM SCT050 BKN250
     FM081700 25013G21KT P6SM VCTS BKN035CB
     FM082100 27011KT P6SM BKN050
     FM090200 30004KT P6SM SCT060=

USA.gov is the U.S. government's official web portal to all federal, state and local government web resources and services.